createdAt,value
2022-11-26T00:00:53.334Z,8.70
2022-11-26T00:03:20.494Z,8.70
2022-11-26T00:05:51.915Z,8.70
2022-11-26T00:08:30.480Z,8.70
2022-11-26T00:10:57.780Z,8.60
2022-11-26T00:13:28.633Z,8.60
2022-11-26T00:15:56.751Z,8.70
2022-11-26T00:18:26.685Z,8.60
2022-11-26T00:21:00.218Z,8.70
2022-11-26T00:23:29.050Z,8.70
2022-11-26T00:26:02.286Z,8.60
2022-11-26T00:28:30.943Z,8.60
2022-11-26T00:31:06.800Z,8.60
2022-11-26T00:33:34.159Z,8.50
2022-11-26T00:36:14.197Z,8.60
2022-11-26T00:38:41.382Z,8.60
2022-11-26T00:41:17.046Z,8.50
2022-11-26T00:43:45.440Z,8.40
2022-11-26T00:46:21.827Z,8.40
2022-11-26T00:48:49.857Z,8.40
2022-11-26T00:51:23.274Z,8.50
2022-11-26T00:53:53.321Z,8.50
2022-11-26T00:56:23.043Z,8.50
2022-11-26T00:58:51.024Z,8.40
2022-11-26T01:01:21.655Z,8.40
2022-11-26T01:03:48.755Z,8.30
2022-11-26T01:06:30.453Z,8.20
2022-11-26T01:08:57.812Z,8.20
2022-11-26T01:11:25.169Z,8.20
2022-11-26T01:13:54.462Z,8.20
2022-11-26T01:16:26.345Z,8.20
2022-11-26T01:18:56.701Z,8.10
2022-11-26T01:21:26.036Z,8.10
2022-11-26T01:23:53.275Z,8.10
2022-11-26T01:26:32.591Z,8.00
2022-11-26T01:28:59.810Z,8.00
2022-11-26T01:31:28.942Z,8.00
2022-11-26T01:33:56.687Z,8.00
2022-11-26T01:36:32.807Z,8.00
2022-11-26T01:39:06.651Z,8.00
2022-11-26T01:42:00.337Z,7.90
2022-11-26T01:44:30.859Z,7.90
2022-11-26T01:46:59.330Z,7.80
2022-11-26T01:49:35.294Z,7.80
2022-11-26T01:52:20.400Z,7.80
2022-11-26T01:54:49.037Z,7.80
2022-11-26T01:57:30.028Z,7.70
2022-11-26T02:00:04.411Z,7.70
2022-11-26T02:02:40.604Z,7.60
2022-11-26T02:05:30.033Z,7.50
2022-11-26T02:07:58.173Z,7.50
2022-11-26T02:10:25.781Z,7.50
2022-11-26T02:12:53.446Z,7.60
2022-11-26T02:15:22.614Z,7.50
2022-11-26T02:17:58.521Z,7.60
2022-11-26T02:20:46.839Z,7.60
2022-11-26T02:23:38.018Z,7.50
2022-11-26T02:26:45.933Z,7.50
2022-11-26T02:29:37.759Z,7.50
2022-11-26T02:32:09.444Z,7.50
2022-11-26T02:35:06.793Z,7.50
2022-11-26T02:37:42.573Z,7.40
2022-11-26T02:40:10.064Z,7.30
2022-11-26T02:42:37.641Z,7.20
2022-11-26T02:45:18.024Z,7.20
2022-11-26T02:47:47.620Z,7.30
2022-11-26T02:51:00.851Z,7.30
2022-11-26T02:53:35.043Z,7.30
2022-11-26T02:56:21.376Z,7.30
2022-11-26T02:58:50.331Z,7.30
2022-11-26T03:01:29.473Z,7.30
2022-11-26T03:04:00.964Z,7.30
2022-11-26T03:06:31.028Z,7.30
2022-11-26T03:08:59.515Z,7.20
2022-11-26T03:11:27.257Z,7.20
2022-11-26T03:13:54.403Z,7.30
2022-11-26T03:16:21.709Z,7.30
2022-11-26T03:18:48.970Z,7.40
2022-11-26T03:21:16.340Z,7.40
2022-11-26T03:23:43.479Z,7.40
2022-11-26T03:26:10.412Z,7.50
2022-11-26T03:28:37.563Z,7.50
2022-11-26T03:31:04.771Z,7.40
2022-11-26T03:33:31.753Z,7.40
2022-11-26T03:35:58.840Z,7.40
2022-11-26T03:38:26.263Z,7.40
2022-11-26T03:40:58.312Z,7.40
2022-11-26T03:43:25.652Z,7.40
2022-11-26T03:45:53.898Z,7.40
2022-11-26T03:48:21.298Z,7.30
2022-11-26T03:50:48.782Z,7.30
2022-11-26T03:53:16.069Z,7.30
2022-11-26T03:55:43.088Z,7.30
2022-11-26T03:58:10.309Z,7.40
2022-11-26T04:00:37.456Z,7.40
2022-11-26T04:03:04.653Z,7.40
2022-11-26T04:05:32.025Z,7.30
2022-11-26T04:07:58.996Z,7.30
2022-11-26T04:10:26.034Z,7.30
2022-11-26T04:12:53.429Z,7.30
2022-11-26T04:15:20.545Z,7.30
2022-11-26T04:17:47.902Z,7.30
2022-11-26T04:20:15.011Z,7.20
2022-11-26T04:22:42.194Z,7.20
2022-11-26T04:25:09.476Z,7.20
2022-11-26T04:27:36.768Z,7.20
2022-11-26T04:30:06.356Z,7.30
2022-11-26T04:32:34.359Z,7.10
2022-11-26T04:35:02.154Z,7.10
2022-11-26T04:37:29.497Z,7.10
2022-11-26T04:39:56.630Z,7.00
2022-11-26T04:42:23.715Z,7.00
2022-11-26T04:44:50.916Z,7.00
2022-11-26T04:47:18.417Z,6.90
2022-11-26T04:49:45.499Z,6.90
2022-11-26T04:52:12.622Z,6.90
2022-11-26T04:54:40.035Z,6.90
2022-11-26T04:57:07.222Z,6.90
2022-11-26T04:59:34.238Z,6.90
2022-11-26T05:02:02.192Z,6.90
2022-11-26T05:04:30.536Z,6.90
2022-11-26T05:06:57.860Z,6.90
2022-11-26T05:09:27.192Z,6.90
2022-11-26T05:11:54.232Z,6.80
2022-11-26T05:14:21.216Z,6.80
2022-11-26T05:16:48.233Z,6.90
2022-11-26T05:19:15.369Z,6.90
2022-11-26T05:21:42.298Z,6.90
2022-11-26T05:24:11.064Z,6.90
2022-11-26T05:26:40.630Z,6.90
2022-11-26T05:29:07.545Z,6.90
2022-11-26T05:31:34.660Z,7.00
2022-11-26T05:34:01.701Z,6.90
2022-11-26T05:36:28.624Z,6.90
2022-11-26T05:38:55.586Z,6.90
2022-11-26T05:41:23.126Z,6.90
2022-11-26T05:43:51.688Z,6.90
2022-11-26T05:46:19.529Z,6.90
2022-11-26T05:48:46.644Z,6.90
2022-11-26T05:51:13.682Z,6.90
2022-11-26T05:53:40.836Z,6.90
2022-11-26T05:56:08.471Z,6.90
2022-11-26T05:58:35.586Z,6.80
2022-11-26T06:01:10.407Z,6.90
2022-11-26T06:03:37.868Z,6.90
2022-11-26T06:06:05.397Z,6.90
2022-11-26T06:08:32.602Z,7.00
2022-11-26T06:10:59.524Z,7.00
2022-11-26T06:13:26.539Z,7.00
2022-11-26T06:15:53.594Z,7.10
2022-11-26T06:18:20.587Z,7.00
2022-11-26T06:20:54.654Z,7.10
2022-11-26T06:23:21.751Z,7.10
2022-11-26T06:25:48.631Z,6.90
2022-11-26T06:28:16.446Z,6.90
2022-11-26T06:30:45.851Z,6.90
2022-11-26T06:33:13.656Z,6.80
2022-11-26T06:35:40.612Z,6.90
2022-11-26T06:38:10.525Z,6.80
2022-11-26T06:40:37.534Z,6.90
2022-11-26T06:43:04.766Z,6.90
2022-11-26T06:45:32.080Z,6.90
2022-11-26T06:47:59.242Z,6.90
2022-11-26T06:50:28.769Z,6.90
2022-11-26T06:52:57.235Z,6.80
2022-11-26T06:55:24.456Z,6.80
2022-11-26T06:57:52.460Z,6.80
2022-11-26T07:00:20.397Z,6.80
2022-11-26T07:02:47.878Z,6.80
2022-11-26T07:05:15.182Z,6.80
2022-11-26T07:07:42.583Z,6.70
2022-11-26T07:10:09.913Z,6.80
2022-11-26T07:12:36.961Z,6.80
2022-11-26T07:15:04.444Z,6.80
2022-11-26T07:17:31.796Z,6.70
2022-11-26T07:19:58.812Z,6.70
2022-11-26T07:22:25.862Z,6.70
2022-11-26T07:24:52.808Z,6.80
2022-11-26T07:27:19.728Z,6.70
2022-11-26T07:29:46.968Z,6.70
2022-11-26T07:32:14.120Z,6.70
2022-11-26T07:34:41.555Z,6.70
2022-11-26T07:37:09.074Z,6.70
2022-11-26T07:39:36.161Z,6.70
2022-11-26T07:42:03.271Z,6.70
2022-11-26T07:44:30.713Z,6.80
2022-11-26T07:46:57.724Z,6.90
2022-11-26T07:49:24.721Z,7.00
2022-11-26T07:51:51.661Z,6.80
2022-11-26T07:54:18.710Z,6.90
2022-11-26T07:56:45.730Z,6.90
2022-11-26T07:59:12.968Z,6.90
2022-11-26T08:01:39.977Z,7.00
2022-11-26T08:04:07.830Z,7.00
2022-11-26T08:06:34.809Z,7.10
2022-11-26T08:09:03.686Z,7.10
2022-11-26T08:11:33.533Z,7.20
2022-11-26T08:14:11.991Z,7.20
2022-11-26T08:16:39.840Z,7.20
2022-11-26T08:19:11.045Z,7.30
2022-11-26T08:21:39.734Z,7.30
2022-11-26T08:24:08.641Z,7.30
2022-11-26T08:26:39.879Z,7.30
2022-11-26T08:29:10.823Z,7.40
2022-11-26T08:31:45.119Z,7.40
2022-11-26T08:34:15.451Z,7.50
2022-11-26T08:36:42.891Z,7.50
2022-11-26T08:39:14.193Z,7.60
2022-11-26T08:41:41.393Z,7.70
2022-11-26T08:44:09.128Z,7.80
2022-11-26T08:46:39.424Z,7.90
2022-11-26T08:49:08.239Z,8.00
2022-11-26T08:51:36.016Z,8.10
2022-11-26T08:54:03.418Z,8.20
2022-11-26T08:56:30.479Z,8.30
2022-11-26T08:58:57.766Z,8.40
2022-11-26T09:01:30.491Z,8.50
2022-11-26T09:04:00.038Z,8.60
2022-11-26T09:06:30.864Z,8.80
2022-11-26T09:09:14.909Z,8.90
2022-11-26T09:11:44.328Z,9.00
2022-11-26T09:14:13.250Z,9.10
2022-11-26T09:16:41.478Z,9.20
2022-11-26T09:19:09.082Z,9.30
2022-11-26T09:21:36.477Z,9.40
2022-11-26T09:24:04.679Z,9.60
2022-11-26T09:26:33.310Z,9.70
2022-11-26T09:29:00.576Z,9.80
2022-11-26T09:31:28.301Z,9.90
2022-11-26T09:33:57.064Z,10.00
2022-11-26T09:36:24.499Z,10.10
2022-11-26T09:38:59.005Z,10.20
2022-11-26T09:41:38.042Z,10.30
2022-11-26T09:44:29.957Z,10.40
2022-11-26T09:47:16.490Z,10.50
2022-11-26T09:50:28.902Z,10.50
2022-11-26T09:53:14.844Z,10.40
2022-11-26T09:55:45.798Z,10.40
2022-11-26T09:58:35.476Z,10.50
2022-11-26T10:01:05.953Z,10.50
2022-11-26T10:03:37.920Z,10.70
2022-11-26T10:06:23.897Z,10.80
2022-11-26T10:09:08.752Z,10.90
2022-11-26T10:11:57.788Z,11.00
2022-11-26T10:14:55.674Z,11.10
2022-11-26T10:17:43.709Z,11.20
2022-11-26T10:20:44.322Z,11.30
2022-11-26T10:23:17.706Z,11.50
2022-11-26T10:25:51.632Z,11.50
2022-11-26T10:28:28.033Z,11.60
2022-11-26T10:31:00.793Z,11.60
2022-11-26T10:33:38.057Z,11.70
2022-11-26T10:36:09.305Z,11.80
2022-11-26T10:38:37.172Z,11.80
2022-11-26T10:41:04.475Z,11.80
2022-11-26T10:43:32.868Z,11.90
2022-11-26T10:45:59.908Z,12.00
2022-11-26T10:48:29.275Z,11.90
2022-11-26T10:50:56.542Z,11.90
2022-11-26T10:53:25.428Z,12.00
2022-11-26T10:55:57.751Z,12.00
2022-11-26T10:58:26.623Z,12.10
2022-11-26T11:01:04.415Z,12.10
2022-11-26T11:04:06.817Z,12.10
2022-11-26T11:06:35.038Z,12.10
2022-11-26T12:41:55.963Z,13.30
2022-11-26T12:44:43.698Z,13.40
2022-11-26T12:47:46.449Z,13.30
2022-11-26T12:50:35.373Z,13.20
2022-11-26T12:53:19.833Z,13.10
2022-11-26T12:55:56.276Z,13.00
2022-11-26T12:58:44.707Z,13.10
2022-11-26T13:01:19.757Z,13.20
2022-11-26T13:03:46.954Z,13.20
2022-11-26T13:06:29.967Z,13.30
2022-11-26T13:09:22.899Z,13.30
2022-11-26T13:11:58.023Z,13.40
2022-11-26T13:14:27.913Z,13.60
2022-11-26T13:17:04.600Z,13.90
2022-11-26T13:19:43.992Z,14.20
2022-11-26T13:22:48.064Z,14.60
2022-11-26T13:25:37.177Z,15.00
2022-11-26T13:28:11.153Z,15.20
2022-11-26T13:30:49.948Z,14.90
2022-11-26T13:33:46.477Z,14.50
2022-11-26T13:36:16.180Z,14.10
2022-11-26T13:39:24.529Z,13.90
2022-11-26T13:42:25.177Z,13.70
2022-11-26T13:48:26.720Z,13.30
2022-11-26T13:51:19.150Z,13.20
2022-11-26T13:54:12.588Z,13.10
2022-11-26T13:56:42.202Z,13.10
2022-11-26T14:08:36.392Z,13.40
2022-11-26T14:11:04.200Z,13.50
2022-11-26T14:13:32.052Z,13.50
2022-11-26T14:16:05.361Z,13.60
2022-11-26T14:18:51.761Z,13.70
2022-11-26T14:21:20.766Z,13.70
2022-11-26T14:23:53.354Z,13.80
2022-11-26T14:26:28.934Z,13.80
2022-11-26T14:29:15.382Z,13.90
2022-11-26T14:31:54.298Z,13.90
2022-11-26T14:34:42.814Z,13.80
2022-11-26T14:37:17.492Z,13.80
2022-11-26T14:39:45.137Z,13.80
2022-11-26T14:42:16.933Z,13.80
2022-11-26T14:44:44.338Z,13.90
2022-11-26T14:47:20.574Z,13.90
2022-11-26T14:50:12.410Z,13.90
2022-11-26T14:52:41.612Z,13.90
2022-11-26T14:55:24.352Z,14.00
2022-11-26T14:58:09.723Z,14.10
2022-11-26T15:00:37.230Z,14.10
2022-11-26T15:03:05.012Z,14.10
2022-11-26T15:05:34.180Z,14.00
2022-11-26T15:08:19.455Z,13.90
2022-11-26T15:11:02.034Z,13.70
2022-11-26T15:13:44.686Z,13.50
2022-11-26T15:16:34.659Z,13.40
2022-11-26T15:19:04.609Z,13.20
2022-11-26T15:21:32.216Z,12.90
2022-11-26T15:24:02.727Z,12.60
2022-11-26T15:26:35.257Z,12.40
2022-11-26T15:29:20.707Z,12.20
2022-11-26T15:31:48.417Z,12.00
2022-11-26T15:34:16.148Z,11.80
2022-11-26T15:36:43.372Z,11.80
2022-11-26T15:39:24.472Z,11.60
2022-11-26T15:41:52.940Z,11.50
2022-11-26T15:44:26.777Z,11.50
2022-11-26T15:46:56.413Z,11.30
2022-11-26T15:49:32.648Z,11.20
2022-11-26T15:52:04.694Z,11.20
2022-11-26T15:54:56.777Z,11.20
2022-11-26T15:57:29.946Z,11.00
2022-11-26T16:00:02.239Z,11.00
2022-11-26T16:02:32.197Z,10.90
2022-11-26T16:05:04.372Z,10.90
2022-11-26T16:07:33.941Z,10.80
2022-11-26T16:10:28.539Z,10.80
2022-11-26T16:13:19.763Z,10.70
2022-11-26T16:16:02.589Z,10.70
2022-11-26T16:19:01.694Z,10.60
2022-11-26T16:21:31.039Z,10.60
2022-11-26T16:24:06.139Z,10.60
2022-11-26T16:26:53.559Z,10.40
2022-11-26T16:29:20.935Z,10.30
2022-11-26T16:31:48.247Z,10.20
2022-11-26T16:34:18.260Z,10.10
2022-11-26T16:36:45.662Z,10.10
2022-11-26T16:39:14.698Z,10.10
2022-11-26T16:41:49.316Z,10.10
2022-11-26T16:44:19.227Z,10.00
2022-11-26T16:47:02.516Z,10.00
2022-11-26T16:49:32.760Z,10.00
2022-11-26T16:52:08.554Z,9.90
2022-11-26T16:54:35.920Z,9.90
2022-11-26T16:57:03.094Z,9.90
2022-11-26T16:59:30.652Z,9.90
2022-11-26T17:01:58.242Z,9.90
2022-11-26T17:04:27.138Z,9.80
2022-11-26T17:06:57.137Z,9.80
2022-11-26T17:09:24.912Z,9.80
2022-11-26T17:26:17.493Z,9.60
2022-11-26T17:34:07.819Z,9.60
2022-11-26T17:40:59.609Z,9.50
2022-11-26T18:14:24.617Z,9.20
2022-11-26T18:16:53.379Z,9.30
2022-11-26T18:19:22.809Z,9.30
2022-11-26T18:21:52.039Z,9.30
2022-11-26T18:24:19.729Z,9.30
2022-11-26T18:26:47.467Z,9.20
2022-11-26T18:29:14.614Z,9.20
2022-11-26T18:31:42.643Z,9.20
2022-11-26T18:34:11.038Z,9.20
2022-11-26T18:36:39.344Z,9.30
2022-11-26T18:39:06.809Z,9.20
2022-11-26T18:41:34.529Z,9.10
2022-11-26T18:44:02.307Z,9.10
2022-11-26T18:46:30.142Z,9.10
2022-11-26T18:48:59.132Z,9.10
2022-11-26T18:51:27.034Z,9.10
2022-11-26T18:53:55.400Z,9.10
2022-11-26T18:56:23.523Z,9.10
2022-11-26T18:58:51.797Z,9.10
2022-11-26T19:01:23.963Z,9.10
2022-11-26T19:03:51.853Z,9.10
2022-11-26T19:06:22.176Z,9.10
2022-11-26T19:11:33.936Z,9.00
2022-11-26T19:14:01.189Z,9.10
2022-11-26T19:16:29.143Z,9.10
2022-11-26T19:18:56.260Z,9.20
2022-11-26T19:21:28.956Z,9.00
2022-11-26T19:23:59.994Z,9.00
2022-11-26T19:26:28.107Z,9.00
2022-11-26T19:29:00.297Z,9.10
2022-11-26T19:31:27.572Z,9.10
2022-11-26T19:33:56.047Z,9.20
2022-11-26T19:36:23.425Z,9.00
2022-11-26T19:38:55.945Z,9.00
2022-11-26T19:41:25.768Z,9.00
2022-11-26T19:43:54.195Z,9.00
2022-11-26T19:46:23.577Z,9.00
2022-11-26T19:48:53.378Z,9.00
2022-11-26T19:51:22.544Z,8.90
2022-11-26T19:53:52.097Z,9.00
2022-11-26T19:56:25.400Z,8.90
2022-11-26T19:59:00.444Z,8.90
2022-11-26T20:01:30.592Z,8.90
2022-11-26T20:04:04.632Z,8.80
2022-11-26T20:06:33.395Z,8.90
2022-11-26T20:09:01.098Z,8.90
2022-11-26T20:11:30.651Z,9.00
2022-11-26T20:13:58.722Z,9.00
2022-11-26T20:16:34.179Z,9.00
2022-11-26T20:19:02.506Z,9.00
2022-11-26T20:21:32.552Z,9.00
2022-11-26T20:24:12.607Z,9.00
2022-11-26T20:26:42.023Z,9.00
2022-11-26T20:29:13.114Z,9.00
2022-11-26T20:31:45.332Z,9.00
2022-11-26T20:34:18.032Z,9.10
2022-11-26T20:36:49.595Z,9.00
2022-11-26T20:39:20.516Z,9.00
2022-11-26T20:41:48.181Z,9.10
2022-11-26T20:44:15.423Z,9.20
2022-11-26T20:46:44.199Z,9.10
2022-11-26T20:49:11.851Z,9.20
2022-11-26T20:51:41.184Z,9.10
2022-11-26T20:54:09.807Z,9.20
2022-11-26T20:56:38.573Z,9.20
2022-11-26T20:59:05.475Z,9.30
2022-11-26T21:01:33.028Z,9.30
2022-11-26T21:04:00.118Z,9.10
2022-11-26T21:06:33.121Z,9.30
2022-11-26T21:09:02.126Z,9.30
2022-11-26T21:11:30.477Z,9.30
2022-11-26T21:14:00.015Z,9.30
2022-11-26T21:16:31.942Z,9.30
2022-11-26T21:19:02.361Z,9.30
2022-11-26T21:21:30.104Z,9.30
2022-11-26T21:23:57.869Z,9.30
2022-11-26T21:26:27.039Z,9.30
2022-11-26T21:28:56.545Z,9.40
2022-11-26T21:31:24.756Z,9.40
2022-11-26T21:34:03.969Z,9.40
2022-11-26T21:36:33.189Z,9.40
2022-11-26T21:39:00.524Z,9.40
2022-11-26T21:41:27.936Z,9.30
2022-11-26T21:43:55.239Z,9.30
2022-11-26T21:46:28.612Z,9.40
2022-11-26T21:48:57.385Z,9.40
2022-11-26T21:51:27.173Z,9.30
2022-11-26T21:53:55.805Z,9.40
2022-11-26T21:56:25.898Z,9.40
2022-11-26T21:58:56.049Z,9.40
2022-11-26T22:01:26.822Z,9.40
2022-11-26T22:03:59.777Z,9.30
2022-11-26T22:06:27.334Z,9.30
2022-11-26T22:08:55.637Z,9.30
2022-11-26T22:11:27.808Z,9.30
2022-11-26T22:13:57.872Z,9.30
2022-11-26T22:16:26.967Z,9.30
2022-11-26T22:18:56.110Z,9.30
2022-11-26T22:21:31.261Z,9.30
2022-11-26T22:23:59.688Z,9.30
2022-11-26T22:26:28.005Z,9.10
2022-11-26T22:28:58.714Z,9.20
2022-11-26T22:31:34.334Z,9.20
2022-11-26T22:34:10.539Z,9.30
2022-11-26T22:36:38.621Z,9.20
2022-11-26T22:39:10.759Z,9.30
2022-11-26T22:41:39.766Z,9.30
2022-11-26T22:44:07.313Z,9.20
2022-11-26T22:46:36.372Z,9.20
2022-11-26T22:49:03.664Z,9.10
2022-11-26T22:51:33.144Z,9.10
2022-11-26T22:54:02.784Z,9.20
2022-11-26T22:56:30.441Z,9.20
2022-11-26T22:58:58.087Z,9.20
2022-11-26T23:01:30.530Z,9.20
2022-11-26T23:03:58.828Z,9.20
2022-11-26T23:06:28.474Z,9.20
2022-11-26T23:08:58.277Z,9.20
2022-11-26T23:11:31.861Z,9.10
2022-11-26T23:14:05.880Z,9.10
2022-11-26T23:16:34.227Z,9.00
2022-11-26T23:19:01.493Z,9.00
2022-11-26T23:21:34.632Z,8.90
2022-11-26T23:24:02.044Z,9.00
2022-11-26T23:26:31.827Z,9.00
2022-11-26T23:29:01.343Z,9.00
2022-11-26T23:31:31.987Z,8.90
2022-11-26T23:33:59.728Z,9.00
2022-11-26T23:36:27.744Z,8.90
2022-11-26T23:38:56.904Z,8.90
2022-11-26T23:41:24.206Z,8.90
2022-11-26T23:43:51.584Z,8.80
2022-11-26T23:46:27.223Z,8.90
2022-11-26T23:48:55.307Z,8.90
2022-11-26T23:51:27.858Z,8.90
2022-11-26T23:53:55.627Z,8.90
2022-11-26T23:56:31.766Z,8.90
2022-11-26T23:59:04.075Z,8.90
